sensor_id;sensor_type;location;lat;lon;timestamp;pressure;altitude;pressure_sealevel;temperature;humidity
8575;BME280;4325;42.520;27.448;2023-03-23T00:01:02;101157.09;;;10.56;100.00
8575;BME280;4325;42.520;27.448;2023-03-23T00:03:29;101151.34;;;10.57;100.00
8575;BME280;4325;42.520;27.448;2023-03-23T00:05:57;101164.56;;;10.66;100.00
8575;BME280;4325;42.520;27.448;2023-03-23T00:08:31;101162.91;;;10.65;100.00
8575;BME280;4325;42.520;27.448;2023-03-23T00:10:58;101171.13;;;10.65;100.00
8575;BME280;4325;42.520;27.448;2023-03-23T00:13:27;101169.22;;;10.65;100.00
8575;BME280;4325;42.520;27.448;2023-03-23T00:15:55;101164.25;;;10.62;100.00
8575;BME280;4325;42.520;27.448;2023-03-23T00:18:24;101160.13;;;10.59;100.00
8575;BME280;4325;42.520;27.448;2023-03-23T00:20:53;101163.41;;;10.61;100.00
8575;BME280;4325;42.520;27.448;2023-03-23T00:23:22;101161.25;;;10.63;100.00
8575;BME280;4325;42.520;27.448;2023-03-23T00:25:51;101161.25;;;10.63;100.00
8575;BME280;4325;42.520;27.448;2023-03-23T00:28:23;101157.44;;;10.65;100.00
8575;BME280;4325;42.520;27.448;2023-03-23T00:30:55;101156.31;;;10.60;100.00
8575;BME280;4325;42.520;27.448;2023-03-23T00:33:26;101160.13;;;10.59;100.00
8575;BME280;4325;42.520;27.448;2023-03-23T00:35:53;101157.94;;;10.61;100.00
8575;BME280;4325;42.520;27.448;2023-03-23T00:38:22;101157.94;;;10.61;100.00
8575;BME280;4325;42.520;27.448;2023-03-23T00:40:49;101153.28;;;10.62;100.00
8575;BME280;4325;42.520;27.448;2023-03-23T00:43:18;101152.47;;;10.61;100.00
8575;BME280;4325;42.520;27.448;2023-03-23T00:45:46;101153.28;;;10.62;100.00
8575;BME280;4325;42.520;27.448;2023-03-23T00:48:18;101144.81;;;10.63;100.00
8575;BME280;4325;42.520;27.448;2023-03-23T00:50:46;101139.34;;;10.63;100.00
8575;BME280;4325;42.520;27.448;2023-03-23T00:53:13;101151.63;;;10.61;100.00
8575;BME280;4325;42.520;27.448;2023-03-23T00:55:41;101146.44;;;10.59;100.00
8575;BME280;4325;42.520;27.448;2023-03-23T00:58:08;101144.53;;;10.60;100.00
8575;BME280;4325;42.520;27.448;2023-03-23T01:00:36;101147.00;;;10.61;100.00
8575;BME280;4325;42.520;27.448;2023-03-23T01:03:03;101147.00;;;10.61;100.00
8575;BME280;4325;42.520;27.448;2023-03-23T01:05:34;101141.00;;;10.65;100.00
8575;BME280;4325;42.520;27.448;2023-03-23T01:08:03;101135.53;;;10.65;100.00
8575;BME280;4325;42.520;27.448;2023-03-23T01:10:30;101129.72;;;10.61;100.00
8575;BME280;4325;42.520;27.448;2023-03-23T01:12:59;101127.78;;;10.56;100.00
8575;BME280;4325;42.520;27.448;2023-03-23T01:15:28;101138.50;;;10.58;100.00
8575;BME280;4325;42.520;27.448;2023-03-23T01:17:55;101139.31;;;10.58;100.00
8575;BME280;4325;42.520;27.448;2023-03-23T01:20:23;101129.44;;;10.57;100.00
8575;BME280;4325;42.520;27.448;2023-03-23T01:22:51;101142.63;;;10.60;100.00
8575;BME280;4325;42.520;27.448;2023-03-23T01:25:27;101127.81;;;10.61;100.00
8575;BME280;4325;42.520;27.448;2023-03-23T01:27:54;101125.41;;;10.65;100.00
8575;BME280;4325;42.520;27.448;2023-03-23T01:30:22;101124.88;;;10.68;100.00
8575;BME280;4325;42.520;27.448;2023-03-23T01:32:49;101121.88;;;10.70;100.00
8575;BME280;4325;42.520;27.448;2023-03-23T01:35:16;101118.84;;;10.71;100.00
8575;BME280;4325;42.520;27.448;2023-03-23T01:37:43;101119.16;;;10.75;100.00
8575;BME280;4325;42.520;27.448;2023-03-23T01:40:11;101129.00;;;10.76;100.00
8575;BME280;4325;42.520;27.448;2023-03-23T01:42:40;101125.72;;;10.74;100.00
8575;BME280;4325;42.520;27.448;2023-03-23T01:45:29;101125.16;;;10.72;100.00
8575;BME280;4325;42.520;27.448;2023-03-23T01:48:10;101118.53;;;10.63;100.00
8575;BME280;4325;42.520;27.448;2023-03-23T01:50:47;101123.97;;;10.57;100.00
8575;BME280;4325;42.520;27.448;2023-03-23T01:53:17;101121.50;;;10.56;100.00
8575;BME280;4325;42.520;27.448;2023-03-23T01:55:47;101121.50;;;10.56;100.00
8575;BME280;4325;42.520;27.448;2023-03-23T01:58:19;101124.53;;;10.59;100.00
8575;BME280;4325;42.520;27.448;2023-03-23T02:00:50;101122.91;;;10.63;100.00
8575;BME280;4325;42.520;27.448;2023-03-23T02:03:19;101119.66;;;10.67;100.00
8575;BME280;4325;42.520;27.448;2023-03-23T02:05:49;101124.88;;;10.68;100.00
8575;BME280;4325;42.520;27.448;2023-03-23T02:08:17;101127.34;;;10.70;100.00
8575;BME280;4325;42.520;27.448;2023-03-23T02:10:45;101133.13;;;10.73;100.00
8575;BME280;4325;42.520;27.448;2023-03-23T02:13:12;101139.16;;;10.75;100.00
8575;BME280;4325;42.520;27.448;2023-03-23T02:15:48;101132.34;;;10.78;100.00
8575;BME280;4325;42.520;27.448;2023-03-23T02:18:34;101133.72;;;10.80;100.00
8575;BME280;4325;42.520;27.448;2023-03-23T02:21:19;101132.06;;;10.79;100.00
8575;BME280;4325;42.520;27.448;2023-03-23T02:26:53;101139.81;;;10.87;100.00
8575;BME280;4325;42.520;27.448;2023-03-23T02:29:34;101135.16;;;10.88;100.00
8575;BME280;4325;42.520;27.448;2023-03-23T02:32:12;101120.91;;;10.91;100.00
8575;BME280;4325;42.520;27.448;2023-03-23T02:34:45;101135.19;;;10.98;100.00
8575;BME280;4325;42.520;27.448;2023-03-23T02:37:20;101142.34;;;10.99;100.00
8575;BME280;4325;42.520;27.448;2023-03-23T02:39:51;101146.69;;;10.95;100.00
8575;BME280;4325;42.520;27.448;2023-03-23T02:42:23;101153.81;;;10.96;100.00
8575;BME280;4325;42.520;27.448;2023-03-23T02:44:52;101142.25;;;10.89;100.00
8575;BME280;4325;42.520;27.448;2023-03-23T02:47:23;101148.84;;;10.93;100.00
8575;BME280;4325;42.520;27.448;2023-03-23T02:49:54;101151.06;;;10.96;100.00
8575;BME280;4325;42.520;27.448;2023-03-23T02:52:25;101156.31;;;10.97;100.00
8575;BME280;4325;42.520;27.448;2023-03-23T02:54:54;101153.56;;;10.97;100.00
8575;BME280;4325;42.520;27.448;2023-03-23T02:57:24;101151.06;;;10.96;100.00
8575;BME280;4325;42.520;27.448;2023-03-23T02:59:52;101160.41;;;10.95;100.00
8575;BME280;4325;42.520;27.448;2023-03-23T03:02:21;101146.13;;;10.88;100.00
8575;BME280;4325;42.520;27.448;2023-03-23T03:04:55;101159.81;;;10.93;100.00
8575;BME280;4325;42.520;27.448;2023-03-23T03:07:37;101162.81;;;10.91;100.00
8575;BME280;4325;42.520;27.448;2023-03-23T03:10:14;101170.78;;;10.93;100.00
8575;BME280;4325;42.520;27.448;2023-03-23T03:12:46;101165.28;;;10.93;100.00
8575;BME280;4325;42.520;27.448;2023-03-23T03:15:23;101168.63;;;10.95;100.00
8575;BME280;4325;42.520;27.448;2023-03-23T03:17:58;101162.00;;;10.91;100.00
8575;BME280;4325;42.520;27.448;2023-03-23T03:20:29;101170.78;;;10.93;100.00
8575;BME280;4325;42.520;27.448;2023-03-23T03:22:59;101169.97;;;10.92;100.00
8575;BME280;4325;42.520;27.448;2023-03-23T03:25:28;101168.31;;;10.91;100.00
8575;BME280;4325;42.520;27.448;2023-03-23T03:27:55;101169.13;;;10.92;100.00
8575;BME280;4325;42.520;27.448;2023-03-23T03:30:26;101171.31;;;10.90;100.00
8575;BME280;4325;42.520;27.448;2023-03-23T03:32:56;101171.28;;;10.85;100.00
8575;BME280;4325;42.520;27.448;2023-03-23T03:35:25;101160.28;;;10.80;100.00
8575;BME280;4325;42.520;27.448;2023-03-23T03:37:54;101170.69;;;10.78;100.00
8575;BME280;4325;42.520;27.448;2023-03-23T03:40:23;101166.78;;;10.74;100.00
8575;BME280;4325;42.520;27.448;2023-03-23T03:42:50;101168.75;;;10.73;100.00
8575;BME280;4325;42.520;27.448;2023-03-23T03:45:19;101178.59;;;10.74;100.00
8575;BME280;4325;42.520;27.448;2023-03-23T03:47:46;101170.09;;;10.71;100.00
8575;BME280;4325;42.520;27.448;2023-03-23T03:50:13;101168.47;;;10.75;100.00
8575;BME280;4325;42.520;27.448;2023-03-23T03:52:41;101167.94;;;10.78;100.00
8575;BME280;4325;42.520;27.448;2023-03-23T03:55:10;101176.97;;;10.78;100.00
8575;BME280;4325;42.520;27.448;2023-03-23T03:57:38;101174.50;;;10.77;100.00
8575;BME280;4325;42.520;27.448;2023-03-23T04:00:08;101173.09;;;10.74;100.00
8575;BME280;4325;42.520;27.448;2023-03-23T04:02:41;101178.91;;;10.78;100.00
8575;BME280;4325;42.520;27.448;2023-03-23T04:05:09;101180.00;;;10.82;100.00
8575;BME280;4325;42.520;27.448;2023-03-23T04:07:37;101178.34;;;10.81;100.00
8575;BME280;4325;42.520;27.448;2023-03-23T04:10:06;101178.91;;;10.78;100.00
8575;BME280;4325;42.520;27.448;2023-03-23T04:12:35;101170.09;;;10.76;100.00
8575;BME280;4325;42.520;27.448;2023-03-23T04:15:03;101181.69;;;10.83;100.00
8575;BME280;4325;42.520;27.448;2023-03-23T04:17:48;101187.72;;;10.85;100.00
8575;BME280;4325;42.520;27.448;2023-03-23T04:20:16;101192.09;;;10.86;100.00
8575;BME280;4325;42.520;27.448;2023-03-23T04:22:43;101197.56;;;10.86;100.00
8575;BME280;4325;42.520;27.448;2023-03-23T04:25:15;101190.69;;;10.83;100.00
8575;BME280;4325;42.520;27.448;2023-03-23T04:27:44;101198.13;;;10.83;100.00
8575;BME280;4325;42.520;27.448;2023-03-23T04:30:12;101197.56;;;10.86;100.00
8575;BME280;4325;42.520;27.448;2023-03-23T04:32:40;101195.41;;;10.88;100.00
8575;BME280;4325;42.520;27.448;2023-03-23T04:35:10;101200.09;;;10.92;100.00
8575;BME280;4325;42.520;27.448;2023-03-23T04:37:38;101206.97;;;10.95;100.00
8575;BME280;4325;42.520;27.448;2023-03-23T04:40:07;101203.13;;;10.96;100.00
8575;BME280;4325;42.520;27.448;2023-03-23T04:42:37;101209.44;;;10.96;100.00
8575;BME280;4325;42.520;27.448;2023-03-23T04:45:07;101209.44;;;10.96;100.00
8575;BME280;4325;42.520;27.448;2023-03-23T04:47:36;101217.09;;;10.94;100.00
8575;BME280;4325;42.520;27.448;2023-03-23T04:50:07;101208.31;;;10.92;100.00
8575;BME280;4325;42.520;27.448;2023-03-23T04:52:35;101209.97;;;10.93;100.00
8575;BME280;4325;42.520;27.448;2023-03-23T04:55:04;101215.75;;;10.97;100.00
8575;BME280;4325;42.520;27.448;2023-03-23T04:57:32;101216.81;;;10.96;100.00
8575;BME280;4325;42.520;27.448;2023-03-23T04:59:59;101220.16;;;11.03;100.00
8575;BME280;4325;42.520;27.448;2023-03-23T05:02:27;101223.19;;;11.01;100.00
8575;BME280;4325;42.520;27.448;2023-03-23T05:04:55;101221.22;;;10.97;100.00
8575;BME280;4325;42.520;27.448;2023-03-23T05:07:22;101223.63;;;10.88;100.00
8575;BME280;4325;42.520;27.448;2023-03-23T05:09:50;101225.50;;;10.83;100.00
8575;BME280;4325;42.520;27.448;2023-03-23T05:12:17;101223.34;;;10.85;100.00
8575;BME280;4325;42.520;27.448;2023-03-23T05:14:44;101225.50;;;10.83;100.00
8575;BME280;4325;42.520;27.448;2023-03-23T05:17:10;101233.09;;;10.76;100.00
8575;BME280;4325;42.520;27.448;2023-03-23T05:19:39;101233.09;;;10.76;100.00
8575;BME280;4325;42.520;27.448;2023-03-23T05:22:09;101229.88;;;10.84;100.00
8575;BME280;4325;42.520;27.448;2023-03-23T05:24:38;101232.09;;;10.87;100.00
8575;BME280;4325;42.520;27.448;2023-03-23T05:27:05;101228.28;;;10.88;100.00
8575;BME280;4325;42.520;27.448;2023-03-23T05:29:33;101237.53;;;10.82;100.00
8575;BME280;4325;42.520;27.448;2023-03-23T05:32:01;101232.66;;;10.89;100.00
8575;BME280;4325;42.520;27.448;2023-03-23T05:34:29;101243.66;;;10.94;100.00
8575;BME280;4325;42.520;27.448;2023-03-23T05:36:59;101243.34;;;10.90;100.00
8575;BME280;4325;42.520;27.448;2023-03-23T05:39:27;101242.97;;;10.77;100.00
8575;BME280;4325;42.520;27.448;2023-03-23T05:41:54;101248.84;;;10.58;100.00
8575;BME280;4325;42.520;27.448;2023-03-23T05:44:21;101251.53;;;10.53;100.00
8575;BME280;4325;42.520;27.448;2023-03-23T05:46:48;101253.22;;;10.59;100.00
8575;BME280;4325;42.520;27.448;2023-03-23T05:49:16;101249.41;;;10.60;100.00
8575;BME280;4325;42.520;27.448;2023-03-23T05:51:43;101254.66;;;10.67;100.00
8575;BME280;4325;42.520;27.448;2023-03-23T05:54:13;101256.63;;;10.72;100.00
8575;BME280;4325;42.520;27.448;2023-03-23T05:56:40;101251.31;;;10.92;100.00
8575;BME280;4325;42.520;27.448;2023-03-23T05:59:07;101257.94;;;10.96;100.00
8575;BME280;4325;42.520;27.448;2023-03-23T06:01:35;101261.88;;;11.10;100.00
8575;BME280;4325;42.520;27.448;2023-03-23T06:04:02;101264.22;;;11.28;100.00
8575;BME280;4325;42.520;27.448;2023-03-23T06:06:30;101252.81;;;11.41;100.00
8575;BME280;4325;42.520;27.448;2023-03-23T06:08:58;101261.31;;;11.45;100.00
8575;BME280;4325;42.520;27.448;2023-03-23T06:11:26;101270.22;;;11.25;100.00
8575;BME280;4325;42.520;27.448;2023-03-23T06:13:53;101269.56;;;11.13;100.00
8575;BME280;4325;42.520;27.448;2023-03-23T06:16:20;101261.81;;;11.00;100.00
8575;BME280;4325;42.520;27.448;2023-03-23T06:18:47;101266.19;;;11.01;100.00
8575;BME280;4325;42.520;27.448;2023-03-23T06:21:15;101267.34;;;11.10;100.00
8575;BME280;4325;42.520;27.448;2023-03-23T06:23:43;101271.00;;;11.20;100.00
8575;BME280;4325;42.520;27.448;2023-03-23T06:26:13;101277.41;;;11.31;100.00
8575;BME280;4325;42.520;27.448;2023-03-23T06:28:43;101265.16;;;11.44;100.00
8575;BME280;4325;42.520;27.448;2023-03-23T06:31:10;101279.19;;;11.52;100.00
8575;BME280;4325;42.520;27.448;2023-03-23T06:33:38;101269.91;;;11.58;100.00
8575;BME280;4325;42.520;27.448;2023-03-23T06:36:07;101278.19;;;11.68;100.00
8575;BME280;4325;42.520;27.448;2023-03-23T06:38:34;101278.81;;;11.80;100.00
8575;BME280;4325;42.520;27.448;2023-03-23T06:41:01;101286.03;;;11.97;100.00
8575;BME280;4325;42.520;27.448;2023-03-23T06:43:28;101292.13;;;12.04;100.00
8575;BME280;4325;42.520;27.448;2023-03-23T06:45:58;101285.00;;;12.13;100.00
8575;BME280;4325;42.520;27.448;2023-03-23T06:48:26;101283.41;;;12.27;100.00
8575;BME280;4325;42.520;27.448;2023-03-23T06:50:53;101287.84;;;12.38;100.00
8575;BME280;4325;42.520;27.448;2023-03-23T06:53:20;101288.41;;;12.45;100.00
8575;BME280;4325;42.520;27.448;2023-03-23T06:55:47;101297.50;;;12.50;100.00
8575;BME280;4325;42.520;27.448;2023-03-23T06:58:14;101299.44;;;12.60;100.00
8575;BME280;4325;42.520;27.448;2023-03-23T07:00:41;101293.41;;;12.68;100.00
8575;BME280;4325;42.520;27.448;2023-03-23T07:03:09;101295.63;;;12.81;100.00
8575;BME280;4325;42.520;27.448;2023-03-23T07:05:36;101298.09;;;12.88;100.00
8575;BME280;4325;42.520;27.448;2023-03-23T07:08:04;101299.47;;;12.85;100.00
8575;BME280;4325;42.520;27.448;2023-03-23T07:10:31;101294.78;;;12.76;100.00
8575;BME280;4325;42.520;27.448;2023-03-23T07:12:58;101301.66;;;12.73;100.00
8575;BME280;4325;42.520;27.448;2023-03-23T07:15:26;101302.50;;;12.74;100.00
8575;BME280;4325;42.520;27.448;2023-03-23T07:17:52;101298.66;;;12.75;100.00
8575;BME280;4325;42.520;27.448;2023-03-23T07:20:22;101304.41;;;12.78;100.00
8575;BME280;4325;42.520;27.448;2023-03-23T07:22:49;101307.16;;;12.73;100.00
8575;BME280;4325;42.520;27.448;2023-03-23T07:25:16;101310.72;;;12.74;100.00
8575;BME280;4325;42.520;27.448;2023-03-23T07:27:44;101310.47;;;12.75;100.00
8575;BME280;4325;42.520;27.448;2023-03-23T07:30:11;101311.53;;;12.64;100.00
8575;BME280;4325;42.520;27.448;2023-03-23T07:32:39;101306.00;;;12.49;100.00
8575;BME280;4325;42.520;27.448;2023-03-23T07:35:06;101307.66;;;12.50;100.00
8575;BME280;4325;42.520;27.448;2023-03-23T07:37:35;101307.69;;;12.60;100.00
8575;BME280;4325;42.520;27.448;2023-03-23T07:40:03;101310.47;;;12.70;100.00
8575;BME280;4325;42.520;27.448;2023-03-23T07:42:40;101310.47;;;12.75;100.00
8575;BME280;4325;42.520;27.448;2023-03-23T07:45:07;101314.88;;;12.81;100.00
8575;BME280;4325;42.520;27.448;2023-03-23T07:47:34;101313.50;;;12.79;100.00
8575;BME280;4325;42.520;27.448;2023-03-23T07:50:02;101317.59;;;12.76;100.00
8575;BME280;4325;42.520;27.448;2023-03-23T07:52:29;101301.09;;;12.61;100.00
8575;BME280;4325;42.520;27.448;2023-03-23T07:54:58;101326.66;;;12.67;100.00
8575;BME280;4325;42.520;27.448;2023-03-23T07:57:26;101327.44;;;12.52;100.00
8575;BME280;4325;42.520;27.448;2023-03-23T07:59:53;101330.97;;;12.37;100.00
8575;BME280;4325;42.520;27.448;2023-03-23T08:02:21;101326.50;;;12.21;100.00
8575;BME280;4325;42.520;27.448;2023-03-23T08:04:47;101331.13;;;12.11;100.00
8575;BME280;4325;42.520;27.448;2023-03-23T08:07:15;101329.94;;;11.97;100.00
8575;BME280;4325;42.520;27.448;2023-03-23T08:09:42;101337.34;;;11.96;100.00
8575;BME280;4325;42.520;27.448;2023-03-23T08:12:11;101337.38;;;12.01;100.00
8575;BME280;4325;42.520;27.448;2023-03-23T08:14:38;101345.41;;;12.13;100.00
8575;BME280;4325;42.520;27.448;2023-03-23T08:17:05;101345.44;;;12.23;100.00
8575;BME280;4325;42.520;27.448;2023-03-23T08:19:32;101347.69;;;12.31;100.00
8575;BME280;4325;42.520;27.448;2023-03-23T08:22:02;101355.38;;;12.34;100.00
8575;BME280;4325;42.520;27.448;2023-03-23T08:24:30;101357.59;;;12.37;100.00
8575;BME280;4325;42.520;27.448;2023-03-23T08:26:58;101348.78;;;12.30;100.00
8575;BME280;4325;42.520;27.448;2023-03-23T08:29:26;101359.19;;;12.28;100.00
8575;BME280;4325;42.520;27.448;2023-03-23T08:31:53;101354.53;;;12.28;100.00
8575;BME280;4325;42.520;27.448;2023-03-23T08:34:20;101361.66;;;12.29;100.00
8575;BME280;4325;42.520;27.448;2023-03-23T08:36:48;101357.81;;;12.25;100.00
8575;BME280;4325;42.520;27.448;2023-03-23T08:39:17;101353.66;;;12.18;100.00
8575;BME280;4325;42.520;27.448;2023-03-23T08:41:44;101361.28;;;12.06;100.00
8575;BME280;4325;42.520;27.448;2023-03-23T08:44:11;101359.38;;;12.06;100.00
8575;BME280;4325;42.520;27.448;2023-03-23T08:46:40;101367.88;;;12.10;100.00
8575;BME280;4325;42.520;27.448;2023-03-23T08:49:07;101358.63;;;12.21;100.00
8575;BME280;4325;42.520;27.448;2023-03-23T08:51:34;101368.00;;;12.30;100.00
8575;BME280;4325;42.520;27.448;2023-03-23T08:54:02;101371.34;;;12.42;100.00
8575;BME280;4325;42.520;27.448;2023-03-23T08:56:29;101371.69;;;12.55;100.00
8575;BME280;4325;42.520;27.448;2023-03-23T08:58:56;101368.69;;;12.67;100.00
8575;BME280;4325;42.520;27.448;2023-03-23T09:01:23;101365.44;;;12.75;100.00
8575;BME280;4325;42.520;27.448;2023-03-23T09:03:51;101369.31;;;12.94;100.00
8575;BME280;4325;42.520;27.448;2023-03-23T09:06:21;101372.94;;;13.15;100.00
8575;BME280;4325;42.520;27.448;2023-03-23T09:08:48;101368.31;;;13.41;100.00
8575;BME280;4325;42.520;27.448;2023-03-23T09:11:15;101371.59;;;13.53;100.00
8575;BME280;4325;42.520;27.448;2023-03-23T09:13:42;101373.22;;;13.84;100.00
8575;BME280;4325;42.520;27.448;2023-03-23T09:16:09;101368.97;;;14.22;100.00
8575;BME280;4325;42.520;27.448;2023-03-23T09:18:36;101370.75;;;14.67;100.00
8575;BME280;4325;42.520;27.448;2023-03-23T09:21:05;101368.03;;;15.10;100.00
8575;BME280;4325;42.520;27.448;2023-03-23T09:23:32;101369.72;;;15.40;100.00
8575;BME280;4325;42.520;27.448;2023-03-23T09:26:00;101372.69;;;15.82;98.24
8575;BME280;4325;42.520;27.448;2023-03-23T09:28:27;101366.91;;;16.08;93.86
8575;BME280;4325;42.520;27.448;2023-03-23T09:30:56;101368.16;;;16.20;91.89
8575;BME280;4325;42.520;27.448;2023-03-23T09:33:24;101374.00;;;16.14;92.03
8575;BME280;4325;42.520;27.448;2023-03-23T09:35:52;101368.94;;;16.21;90.87
8575;BME280;4325;42.520;27.448;2023-03-23T09:38:20;101377.44;;;16.29;90.13
8575;BME280;4325;42.520;27.448;2023-03-23T09:40:49;101361.75;;;16.25;90.99
8575;BME280;4325;42.520;27.448;2023-03-23T09:43:36;101382.59;;;16.36;90.92
8575;BME280;4325;42.520;27.448;2023-03-23T09:46:19;101372.72;;;16.30;89.26
8575;BME280;4325;42.520;27.448;2023-03-23T09:48:50;101379.22;;;16.20;87.89
8575;BME280;4325;42.520;27.448;2023-03-23T09:51:28;101380.13;;;16.11;87.29
8575;BME280;4325;42.520;27.448;2023-03-23T09:54:02;101376.41;;;15.97;87.79
8575;BME280;4325;42.520;27.448;2023-03-23T09:56:31;101372.69;;;15.82;88.16
8575;BME280;4325;42.520;27.448;2023-03-23T09:59:02;101370.31;;;15.71;87.60
8575;BME280;4325;42.520;27.448;2023-03-23T10:01:33;101375.69;;;15.57;87.42
8575;BME280;4325;42.520;27.448;2023-03-23T10:04:06;101370.78;;;15.44;88.17
8575;BME280;4325;42.520;27.448;2023-03-23T10:06:34;101370.34;;;15.32;89.26
8575;BME280;4325;42.520;27.448;2023-03-23T10:09:04;101372.09;;;15.18;90.36
8575;BME280;4325;42.520;27.448;2023-03-23T10:11:41;101363.66;;;14.99;91.97
8575;BME280;4325;42.520;27.448;2023-03-23T10:14:25;101380.53;;;14.93;92.36
8575;BME280;4325;42.520;27.448;2023-03-23T10:17:00;101386.09;;;14.83;93.18
8575;BME280;4325;42.520;27.448;2023-03-23T10:19:34;101378.78;;;14.58;93.12
8575;BME280;4325;42.520;27.448;2023-03-23T10:22:04;101383.53;;;14.47;94.92
8575;BME280;4325;42.520;27.448;2023-03-23T10:24:35;101385.75;;;14.45;96.20
8575;BME280;4325;42.520;27.448;2023-03-23T10:27:10;101382.44;;;14.43;96.55
8575;BME280;4325;42.520;27.448;2023-03-23T10:29:42;101380.25;;;14.40;97.21
8575;BME280;4325;42.520;27.448;2023-03-23T10:32:13;101377.78;;;14.24;96.90
8575;BME280;4325;42.520;27.448;2023-03-23T10:34:44;101376.19;;;14.03;96.69
8575;BME280;4325;42.520;27.448;2023-03-23T10:37:19;101374.31;;;13.78;98.39
8575;BME280;4325;42.520;27.448;2023-03-23T10:39:51;101371.56;;;13.63;100.00
8575;BME280;4325;42.520;27.448;2023-03-23T10:42:24;101375.44;;;13.52;100.00
8575;BME280;4325;42.520;27.448;2023-03-23T10:44:53;101374.34;;;13.53;100.00
8575;BME280;4325;42.520;27.448;2023-03-23T10:47:20;101372.41;;;13.53;100.00
8575;BME280;4325;42.520;27.448;2023-03-23T10:49:50;101369.41;;;13.50;100.00
8575;BME280;4325;42.520;27.448;2023-03-23T10:52:25;101372.69;;;13.47;100.00
8575;BME280;4325;42.520;27.448;2023-03-23T10:55:00;101374.06;;;13.49;100.00
8575;BME280;4325;42.520;27.448;2023-03-23T10:57:29;101363.91;;;13.50;100.00
8575;BME280;4325;42.520;27.448;2023-03-23T11:00:02;101364.72;;;13.35;100.00
8575;BME280;4325;42.520;27.448;2023-03-23T11:02:35;101361.69;;;13.37;100.00
8575;BME280;4325;42.520;27.448;2023-03-23T11:05:07;101367.72;;;13.44;100.00
8575;BME280;4325;42.520;27.448;2023-03-23T11:07:40;101364.97;;;13.49;100.00
8575;BME280;4325;42.520;27.448;2023-03-23T11:10:22;101364.72;;;13.55;100.00
8575;BME280;4325;42.520;27.448;2023-03-23T11:12:51;101360.03;;;13.61;100.00
8575;BME280;4325;42.520;27.448;2023-03-23T11:15:28;101354.50;;;13.66;100.00
8575;BME280;4325;42.520;27.448;2023-03-23T11:17:57;101361.13;;;13.70;99.78
8575;BME280;4325;42.520;27.448;2023-03-23T11:20:25;101360.00;;;13.66;98.92
8575;BME280;4325;42.520;27.448;2023-03-23T11:22:54;101351.50;;;13.57;98.68
8575;BME280;4325;42.520;27.448;2023-03-23T11:25:22;101356.72;;;13.54;98.56
8575;BME280;4325;42.520;27.448;2023-03-23T11:27:50;101346.84;;;13.28;99.15
8575;BME280;4325;42.520;27.448;2023-03-23T11:30:23;101350.13;;;13.14;100.00
8575;BME280;4325;42.520;27.448;2023-03-23T11:32:53;101347.38;;;13.24;100.00
8575;BME280;4325;42.520;27.448;2023-03-23T11:35:23;101347.38;;;13.40;100.00
8575;BME280;4325;42.520;27.448;2023-03-23T11:37:53;101346.84;;;13.48;100.00
8575;BME280;4325;42.520;27.448;2023-03-23T11:40:25;101340.50;;;13.52;100.00
8575;BME280;4325;42.520;27.448;2023-03-23T11:42:59;101338.28;;;13.59;100.00
8575;BME280;4325;42.520;27.448;2023-03-23T11:45:33;101342.94;;;13.79;100.00
8575;BME280;4325;42.520;27.448;2023-03-23T11:48:12;101338.53;;;13.83;100.00
8575;BME280;4325;42.520;27.448;2023-03-23T11:50:47;101344.00;;;14.03;100.00
8575;BME280;4325;42.520;27.448;2023-03-23T11:53:23;101335.66;;;14.23;99.51
8575;BME280;4325;42.520;27.448;2023-03-23T11:55:58;101345.25;;;14.41;98.18
8575;BME280;4325;42.520;27.448;2023-03-23T11:58:27;101344.94;;;14.52;96.18
8575;BME280;4325;42.520;27.448;2023-03-23T12:01:04;101348.06;;;14.21;93.31
8575;BME280;4325;42.520;27.448;2023-03-23T12:03:53;101347.28;;;14.00;96.35
8575;BME280;4325;42.520;27.448;2023-03-23T12:06:28;101347.63;;;13.73;98.49
8575;BME280;4325;42.520;27.448;2023-03-23T12:09:06;101341.88;;;13.55;100.00
8575;BME280;4325;42.520;27.448;2023-03-23T12:11:55;101343.53;;;13.15;100.00
8575;BME280;4325;42.520;27.448;2023-03-23T12:14:30;101340.25;;;13.13;100.00
8575;BME280;4325;42.520;27.448;2023-03-23T12:17:14;101339.69;;;13.16;100.00
8575;BME280;4325;42.520;27.448;2023-03-23T12:19:49;101337.75;;;13.27;100.00
8575;BME280;4325;42.520;27.448;2023-03-23T12:22:28;101337.75;;;13.37;100.00
8575;BME280;4325;42.520;27.448;2023-03-23T12:25:12;101340.50;;;13.52;100.00
8575;BME280;4325;42.520;27.448;2023-03-23T12:27:49;101337.44;;;13.74;100.00
8575;BME280;4325;42.520;27.448;2023-03-23T12:30:30;101334.66;;;13.99;100.00
8575;BME280;4325;42.520;27.448;2023-03-23T12:33:13;101329.94;;;14.05;100.00
8575;BME280;4325;42.520;27.448;2023-03-23T12:35:50;101327.41;;;14.23;100.00
8575;BME280;4325;42.520;27.448;2023-03-23T12:41:34;101322.81;;;14.63;99.11
8575;BME280;4325;42.520;27.448;2023-03-23T12:44:07;101319.78;;;14.64;98.36
8575;BME280;4325;42.520;27.448;2023-03-23T12:49:43;101308.53;;;15.33;95.72
8575;BME280;4325;42.520;27.448;2023-03-23T12:52:14;101310.28;;;16.29;89.87
8575;BME280;4325;42.520;27.448;2023-03-23T12:54:47;101314.44;;;18.30;77.08
8575;BME280;4325;42.520;27.448;2023-03-23T12:57:22;101315.03;;;20.57;60.73
8575;BME280;4325;42.520;27.448;2023-03-23T13:00:04;101304.75;;;22.07;50.50
8575;BME280;4325;42.520;27.448;2023-03-23T13:02:40;101297.50;;;22.73;48.26
8575;BME280;4325;42.520;27.448;2023-03-23T13:05:11;101301.25;;;22.77;47.44
8575;BME280;4325;42.520;27.448;2023-03-23T13:07:45;101304.78;;;22.57;46.82
8575;BME280;4325;42.520;27.448;2023-03-23T13:10:19;101304.47;;;22.58;46.59
8575;BME280;4325;42.520;27.448;2023-03-23T13:12:49;101309.06;;;22.63;45.76
8575;BME280;4325;42.520;27.448;2023-03-23T13:15:27;101305.81;;;22.81;44.34
8575;BME280;4325;42.520;27.448;2023-03-23T13:18:00;101312.03;;;22.58;43.39